Aviation Digital Data Service (ADDS)

Output produced by METARs form (2156 UTC 19 February 2018)
found at http://www.aviationweather.gov/adds/metars/
 
HKEL 191900Z 10004KT 9999 FEW018CB BKN270 16/10 Q1023
TAF HKEL 191700Z 1918/2018 08005KT 9999 FEW018 SCT080 
     BECMG 2008/2011 07010KT FEW023CB BKN024 
     TEMPO 2012/2018 -SHRA FEW019CB SCT080
       
HKJK 192130Z 05005KT 9999 -RA SCT028 SCT080 19/16 Q1020
TAF HKJK 191700Z 1918/2024 02005KT 9999 SCT021 SCT080 
     BECMG 2008/2011 06010KT SCT028 
     BECMG 2020/2023 04005KT SCT020
       
HKKI 192000Z 30004KT 9999 FEW020CB SCT09023/15 Q1015
TAF HKKI 191700Z 1918/2018 04005KT 9999 FEW021CB SCT090 
     BECMG 2008/2011 24010KT FEW028CB SCT090 
     TEMPO 2012/2018 -SHRA FEW024CB SCT100
       
HKML 192000Z 12005KT 9999 FEW021 28/23 Q1010
HKMO 192100Z 00000KT 9999 FEW023 27/24 Q1010 NOSIG
TAF HKMO 191700Z 1918/2024 09005KT 9999 FEW022 
     BECMG 2000/2006 00000KT FEW019 
     BECMG 2009/2012 12010KT FEW026 
     BECMG 2015/2018 09010KT FEW024 
     BECMG 2021/2024 00000KT FEW021
       
HKNW 191800Z 03007KT 9999 BKN024 22/14 Q1018
HKWJ 191600Z 12004KT 9999 FEW036 SCT370 35/18 Q1005